Date,TemperatureHighF,TemperatureAvgF,TemperatureLowF,DewpointHighF,DewpointAvgF,DewpointLowF,HumidityHigh,HumidityAvg,HumidityLow,PressureMaxIn,PressureMinIn,WindSpeedMaxMPH,WindSpeedAvgMPH,GustSpeedMaxMPH,PrecipitationSumIn
2013-6-1,88.3,78.9,71.3,78.3,73.1,69.8,97,83,65,30.08,29.98,28,4,28,0.05
2013-6-2,97.2,79.9,72.6,77.3,73.9,71.0,99,84,45,30.02,29.88,22,2,22,0.39
2013-6-3,91.5,79.5,73.6,77.2,74.4,72.4,98,86,55,30.01,29.88,14,1,16,0.52
2013-6-4,88.5,77.3,72.7,75.2,72.7,70.4,98,87,57,30.05,29.94,16,1,20,0.07
2013-6-5,88.0,75.0,71.6,77.0,72.9,69.9,99,93,65,30.03,29.92,16,1,18,1.98
2013-6-6,78.6,74.6,72.5,77.3,73.3,70.3,99,96,81,29.93,29.67,24,4,26,1.82
2013-6-7,92.0,80.2,72.7,77.2,73.3,70.6,97,81,59,29.95,29.76,20,2,20,0.00
2013-6-8,92.1,77.5,70.5,77.6,72.9,68.8,98,87,60,30.10,29.95,36,1,36,1.38
2013-6-9,90.0,79.3,70.2,77.7,73.3,69.6,99,83,62,30.12,30.03,24,3,28,0.00
2013-6-10,93.5,80.3,73.1,78.5,74.5,71.3,98,84,52,30.11,30.01,22,2,22,0.07
2013-6-11,92.3,78.2,72.3,78.5,74.1,69.4,99,89,57,30.09,30.01,14,1,20,0.08
2013-6-12,97.1,81.9,70.0,77.3,72.6,66.6,99,77,41,30.09,29.99,26,1,26,0.00
2013-6-13,96.0,83.5,73.2,77.5,73.5,71.2,95,74,47,30.04,29.89,14,1,18,0.00
2013-6-14,94.1,84.0,75.6,75.4,72.5,66.8,92,71,43,29.94,29.83,16,3,16,0.00
2013-6-15,91.3,82.1,77.1,79.4,74.9,71.8,93,79,62,30.08,29.91,22,3,22,0.00
2013-6-16,88.8,81.6,77.4,80.0,75.5,72.5,91,82,65,30.10,30.03,24,3,28,0.01
2013-6-17,90.1,79.9,74.4,80.9,76.5,73.2,98,90,64,30.09,29.97,16,1,20,1.24
2013-6-18,95.5,81.4,71.7,78.8,74.4,70.8,99,81,50,30.08,29.95,16,1,16,0.10
2013-6-19,94.7,83.1,73.0,77.6,74.1,69.4,97,76,46,30.05,29.95,20,2,20,0.00
2013-6-20,95.3,80.3,73.3,79.5,73.9,70.5,97,82,49,30.11,30.01,24,1,24,0.21
2013-6-21,89.8,77.5,71.4,77.6,72.8,70.2,99,87,59,30.13,30.05,18,1,18,0.05
2013-6-22,92.5,80.1,71.3,77.5,72.6,68.3,99,80,47,30.13,30.05,14,1,16,0.00
2013-6-23,90.3,79.4,71.3,77.0,74.0,70.4,99,84,57,30.16,30.08,20,2,20,0.00
2013-6-24,92.1,81.5,72.5,77.3,73.9,71.5,99,79,57,30.20,30.09,22,2,24,0.00
2013-6-25,92.0,81.9,71.7,77.5,73.4,69.4,99,77,53,30.17,30.04,20,2,20,0.00
2013-6-26,93.8,80.7,74.3,79.3,74.0,69.8,97,81,53,30.09,30.01,32,2,32,0.02
2013-6-27,95.3,81.2,70.5,78.3,73.1,69.4,98,78,48,30.05,29.93,12,1,12,0.03
2013-6-28,94.3,79.5,72.8,78.3,74.1,69.7,97,85,53,29.98,29.85,30,1,30,0.28
2013-6-29,91.3,81.0,75.0,78.4,74.5,71.0,96,82,57,29.89,29.80,24,2,24,0.00
2013-6-30,91.6,77.6,73.6,78.4,74.1,70.6,97,90,61,29.90,29.82,44,1,44,0.65